Terminal Aerodrome Forecast
Issued by NWS

Home | Current Version | Previous Version | Text Only | Print | Product List | Glossary On
Versions: 1 2 3 4 5 6 7 8 9 10 11 12 13 14 15 16 17 18 19 20 21 22 23 24 25
602
FTUS46 KSGX 180520
TAFSAN
TAF
KSAN 180520Z 1806/1912 VRB04KT P6SM SCT250
     FM181300 VRB04KT 3SM BR VCFG BKN005
     FM181600 VRB04KT 6SM HZ SCT009
     FM182000 26010KT P6SM SCT020
     FM190100 23007KT P6SM BKN025
     FM190800 25011KT 6SM -SHRA BKN025 OVC035=

USA.gov is the U.S. government's official web portal to all federal, state and local government web resources and services.